Fountain, Michigan
Current Conditions -  °F | °C
As of 1:35 PM on Monday 22 Dec 2014 (Local Time) from KLDM Reporting Station
Overcast Overcast  
Wind Chill: 31°   Ceiling: 9000
Heat Index: 38°   Visibility: 10mi
Dew Point: 29°   Wind: 10mph
Humidity: 71%   Direction: 120°ESE
Pressure: 29.89"   Gusts: NA
Location:  44.05°N, 86.18°W
Report Text: KLDM 221835Z AUTO 12009KT 10SM OVC090 03/M02 A2989 RMK AO2 T00321017
Loading
Personal Weather Stations






























Interactive Weather Map New forecast layout! Learn more

10-Day Weather Forecast

Advertisements
Track Severe Weather on mobile